VOI1407 MMMZ-MMGL
Flight info
| Callsign | VOI1407 |
|---|---|
| Flight time | 0h 52m |
| Altitude | 33000 |
| Route | MZT5B MZT UJ7 AMULA AMULA1B |
| Aircraft | A320/M-SDE3FGHIRWY/LB1 |
Departure
| Time | 2026-04-27 19:35 |
|---|---|
| Airport | General Rafael Buelna International Airport (MMMZ) |
Arrival
| Time | 2026-04-27 20:27 |
|---|---|
| Airport | Guadalajara International Airport (MMGL) |
| Time | Latitude | Longitude | Altitude | Speed | Heading |
|---|---|---|---|---|---|
| 2026-04-27 19:15 | 23.16556 | -106.27129 | 48 ft | 0 kts | 2° |
| 2026-04-27 19:19 | 23.16555 | -106.27129 | 48 ft | 0 kts | 2° |
| 2026-04-27 19:26 | 23.16543 | -106.27130 | 48 ft | 4 kts | 5° |
| 2026-04-27 19:26 | 23.16517 | -106.27134 | 46 ft | 4 kts | 16° |
| 2026-04-27 19:27 | 23.16493 | -106.27145 | 48 ft | 4 kts | 50° |
| 2026-04-27 19:27 | 23.16486 | -106.27160 | 48 ft | 0 kts | 91° |
| 2026-04-27 19:29 | 23.16486 | -106.27158 | 48 ft | 2 kts | 91° |
| 2026-04-27 19:30 | 23.16485 | -106.27114 | 46 ft | 10 kts | 91° |
| 2026-04-27 19:30 | 23.16478 | -106.27014 | 48 ft | 17 kts | 94° |
| 2026-04-27 19:30 | 23.16470 | -106.26888 | 48 ft | 12 kts | 93° |
| 2026-04-27 19:30 | 23.16441 | -106.26851 | 48 ft | 6 kts | 187° |
| 2026-04-27 19:31 | 23.16387 | -106.26853 | 48 ft | 8 kts | 180° |
| 2026-04-27 19:31 | 23.16310 | -106.26843 | 49 ft | 14 kts | 160° |
| 2026-04-27 19:31 | 23.16236 | -106.26758 | 49 ft | 17 kts | 122° |
| 2026-04-27 19:31 | 23.16173 | -106.26641 | 49 ft | 19 kts | 115° |
| 2026-04-27 19:32 | 23.16150 | -106.26494 | 49 ft | 22 kts | 93° |
| 2026-04-27 19:32 | 23.16141 | -106.26313 | 48 ft | 26 kts | 93° |
| 2026-04-27 19:32 | 23.16131 | -106.26105 | 49 ft | 29 kts | 92° |
| 2026-04-27 19:32 | 23.16122 | -106.25892 | 48 ft | 29 kts | 93° |
| 2026-04-27 19:33 | 23.16111 | -106.25661 | 48 ft | 31 kts | 93° |
| 2026-04-27 19:33 | 23.16104 | -106.25502 | 48 ft | 32 kts | 91° |
| 2026-04-27 19:33 | 23.16100 | -106.25247 | 48 ft | 10 kts | 80° |
| 2026-04-27 19:33 | 23.16085 | -106.25205 | 48 ft | 5 kts | 209° |
| 2026-04-27 19:34 | 23.16087 | -106.25246 | 47 ft | 10 kts | 280° |
| 2026-04-27 19:34 | 23.16106 | -106.25568 | 49 ft | 77 kts | 272° |
| 2026-04-27 19:34 | 23.16145 | -106.26363 | 46 ft | 132 kts | 273° |
| 2026-04-27 19:34 | 23.16216 | -106.27499 | 233 ft | 159 kts | 273° |
| 2026-04-27 19:35 | 23.16258 | -106.28680 | 925 ft | 155 kts | 270° |
| 2026-04-27 19:35 | 23.16284 | -106.29847 | 1516 ft | 154 kts | 270° |
| 2026-04-27 19:35 | 23.16301 | -106.31024 | 2029 ft | 161 kts | 271° |
| 2026-04-27 19:35 | 23.16193 | -106.32297 | 2316 ft | 184 kts | 251° |
| 2026-04-27 19:36 | 23.15303 | -106.33371 | 2537 ft | 208 kts | 205° |
| 2026-04-27 19:36 | 23.13800 | -106.33459 | 2939 ft | 235 kts | 160° |
| 2026-04-27 19:36 | 23.12461 | -106.32381 | 3501 ft | 255 kts | 127° |
| 2026-04-27 19:36 | 23.11501 | -106.30660 | 4201 ft | 272 kts | 112° |
| 2026-04-27 19:37 | 23.10712 | -106.28738 | 5097 ft | 281 kts | 111° |
| 2026-04-27 19:37 | 23.09955 | -106.26788 | 5935 ft | 285 kts | 112° |
| 2026-04-27 19:37 | 23.09150 | -106.24805 | 6774 ft | 288 kts | 113° |
| 2026-04-27 19:37 | 23.08293 | -106.22821 | 7538 ft | 289 kts | 115° |
| 2026-04-27 19:38 | 23.07412 | -106.20882 | 8292 ft | 290 kts | 117° |
| 2026-04-27 19:38 | 23.06489 | -106.18920 | 9047 ft | 292 kts | 118° |
| 2026-04-27 19:38 | 23.05551 | -106.16957 | 9792 ft | 293 kts | 119° |
| 2026-04-27 19:38 | 23.04592 | -106.14966 | 10302 ft | 304 kts | 119° |
| 2026-04-27 19:39 | 23.03580 | -106.12882 | 10434 ft | 326 kts | 119° |
| 2026-04-27 19:39 | 23.02484 | -106.10626 | 10627 ft | 344 kts | 119° |
| 2026-04-27 19:39 | 23.01355 | -106.08301 | 11107 ft | 350 kts | 119° |
| 2026-04-27 19:39 | 23.00213 | -106.05943 | 11672 ft | 354 kts | 119° |
| 2026-04-27 19:40 | 22.99074 | -106.03582 | 12251 ft | 357 kts | 119° |
| 2026-04-27 19:40 | 22.97914 | -106.01174 | 12839 ft | 360 kts | 119° |
| 2026-04-27 19:40 | 22.96745 | -105.98748 | 13432 ft | 364 kts | 119° |
| 2026-04-27 19:40 | 22.95577 | -105.96324 | 13967 ft | 367 kts | 119° |
| 2026-04-27 19:41 | 22.94384 | -105.93852 | 14459 ft | 371 kts | 119° |
| 2026-04-27 19:41 | 22.93179 | -105.91361 | 14939 ft | 375 kts | 120° |
| 2026-04-27 19:41 | 22.91972 | -105.88870 | 15407 ft | 379 kts | 120° |
| 2026-04-27 19:41 | 22.90734 | -105.86320 | 15908 ft | 382 kts | 120° |
| 2026-04-27 19:42 | 22.89489 | -105.83755 | 16392 ft | 386 kts | 120° |
| 2026-04-27 19:42 | 22.88222 | -105.81146 | 16884 ft | 390 kts | 120° |
| 2026-04-27 19:42 | 22.86969 | -105.78564 | 17360 ft | 394 kts | 120° |
| 2026-04-27 19:42 | 22.85682 | -105.75911 | 17853 ft | 398 kts | 120° |
| 2026-04-27 19:43 | 22.84385 | -105.73238 | 18314 ft | 402 kts | 120° |
| 2026-04-27 19:43 | 22.83071 | -105.70525 | 18754 ft | 406 kts | 120° |
| 2026-04-27 19:43 | 22.81744 | -105.67794 | 19192 ft | 410 kts | 120° |
| 2026-04-27 19:43 | 22.80407 | -105.65082 | 19647 ft | 413 kts | 121° |
| 2026-04-27 19:44 | 22.78948 | -105.62362 | 20097 ft | 416 kts | 123° |
| 2026-04-27 19:44 | 22.77426 | -105.59717 | 20551 ft | 420 kts | 125° |
| 2026-04-27 19:44 | 22.75826 | -105.57036 | 21013 ft | 423 kts | 126° |
| 2026-04-27 19:44 | 22.74222 | -105.54376 | 21467 ft | 427 kts | 126° |
| 2026-04-27 19:45 | 22.72592 | -105.51653 | 21901 ft | 430 kts | 125° |
| 2026-04-27 19:45 | 22.70961 | -105.48897 | 22324 ft | 434 kts | 125° |
| 2026-04-27 19:45 | 22.69333 | -105.46112 | 22730 ft | 438 kts | 124° |
| 2026-04-27 19:45 | 22.67722 | -105.43331 | 23129 ft | 442 kts | 124° |
| 2026-04-27 19:46 | 22.66079 | -105.40487 | 23529 ft | 446 kts | 124° |
| 2026-04-27 19:46 | 22.64428 | -105.37635 | 23851 ft | 448 kts | 124° |
| 2026-04-27 19:46 | 22.62760 | -105.34763 | 24194 ft | 451 kts | 124° |
| 2026-04-27 19:46 | 22.61101 | -105.31908 | 24526 ft | 453 kts | 124° |
| 2026-04-27 19:47 | 22.59415 | -105.29005 | 24863 ft | 456 kts | 125° |
| 2026-04-27 19:47 | 22.57723 | -105.26097 | 25187 ft | 458 kts | 125° |
| 2026-04-27 19:47 | 22.56014 | -105.23168 | 25538 ft | 460 kts | 125° |
| 2026-04-27 19:47 | 22.54293 | -105.20225 | 25877 ft | 463 kts | 125° |
| 2026-04-27 19:48 | 22.52580 | -105.17299 | 26220 ft | 465 kts | 125° |
| 2026-04-27 19:48 | 22.50842 | -105.14330 | 26572 ft | 467 kts | 125° |
| 2026-04-27 19:48 | 22.49104 | -105.11359 | 26908 ft | 469 kts | 125° |
| 2026-04-27 19:48 | 22.47356 | -105.08367 | 27240 ft | 472 kts | 125° |
| 2026-04-27 19:49 | 22.45589 | -105.05345 | 27578 ft | 474 kts | 125° |
| 2026-04-27 19:49 | 22.43836 | -105.02352 | 27905 ft | 476 kts | 125° |
| 2026-04-27 19:49 | 22.42058 | -104.99314 | 28249 ft | 478 kts | 125° |
| 2026-04-27 19:49 | 22.40273 | -104.96267 | 28582 ft | 480 kts | 125° |
| 2026-04-27 19:50 | 22.38499 | -104.93244 | 28901 ft | 482 kts | 125° |
| 2026-04-27 19:50 | 22.36691 | -104.90164 | 29234 ft | 485 kts | 125° |
| 2026-04-27 19:50 | 22.34884 | -104.87082 | 29650 ft | 485 kts | 125° |
| 2026-04-27 19:50 | 22.33078 | -104.84005 | 30128 ft | 484 kts | 125° |
| 2026-04-27 19:51 | 22.31269 | -104.80927 | 30506 ft | 483 kts | 125° |
| 2026-04-27 19:51 | 22.29464 | -104.77861 | 30863 ft | 483 kts | 125° |
| 2026-04-27 19:51 | 22.27679 | -104.74833 | 31207 ft | 484 kts | 125° |
| 2026-04-27 19:51 | 22.25863 | -104.71757 | 31597 ft | 484 kts | 125° |
| 2026-04-27 19:52 | 22.24048 | -104.68683 | 31971 ft | 485 kts | 125° |
| 2026-04-27 19:52 | 22.22844 | -104.66643 | 32214 ft | 485 kts | 125° |
| 2026-04-27 19:52 | 22.21029 | -104.63569 | 32562 ft | 486 kts | 125° |
| 2026-04-27 19:52 | 22.19205 | -104.60482 | 32843 ft | 488 kts | 125° |
| 2026-04-27 19:53 | 22.15530 | -104.54274 | 32901 ft | 492 kts | 125° |
| 2026-04-27 19:53 | 22.11841 | -104.48054 | 32892 ft | 491 kts | 125° |
| 2026-04-27 19:54 | 22.08176 | -104.41863 | 32887 ft | 492 kts | 125° |
| 2026-04-27 19:54 | 22.04510 | -104.35662 | 32878 ft | 491 kts | 125° |
| 2026-04-27 19:55 | 22.00813 | -104.29414 | 32884 ft | 493 kts | 125° |
| 2026-04-27 19:55 | 21.97144 | -104.23232 | 32888 ft | 492 kts | 125° |
| 2026-04-27 19:56 | 21.93433 | -104.17010 | 32887 ft | 492 kts | 125° |
| 2026-04-27 19:56 | 21.89749 | -104.10837 | 32881 ft | 491 kts | 125° |
| 2026-04-27 19:57 | 21.86048 | -104.04634 | 32874 ft | 491 kts | 125° |
| 2026-04-27 19:57 | 21.82375 | -103.98481 | 32868 ft | 490 kts | 125° |
| 2026-04-27 19:58 | 21.78682 | -103.92295 | 32868 ft | 490 kts | 125° |
| 2026-04-27 19:58 | 21.75012 | -103.86157 | 32863 ft | 489 kts | 125° |
| 2026-04-27 19:59 | 21.73166 | -103.83075 | 32624 ft | 489 kts | 125° |
| 2026-04-27 19:59 | 21.71321 | -103.80000 | 32162 ft | 488 kts | 125° |
| 2026-04-27 19:59 | 21.69481 | -103.76940 | 31023 ft | 497 kts | 125° |
| 2026-04-27 19:59 | 21.67595 | -103.73816 | 30095 ft | 498 kts | 127° |
| 2026-04-27 20:00 | 21.65431 | -103.70940 | 29476 ft | 488 kts | 137° |
| 2026-04-27 20:00 | 21.62913 | -103.68554 | 28839 ft | 478 kts | 147° |
| 2026-04-27 20:00 | 21.60107 | -103.66700 | 28210 ft | 469 kts | 157° |
| 2026-04-27 20:00 | 21.57137 | -103.65421 | 27598 ft | 460 kts | 166° |
| 2026-04-27 20:01 | 21.54087 | -103.64425 | 27052 ft | 454 kts | 166° |
| 2026-04-27 20:01 | 21.51097 | -103.63443 | 26844 ft | 446 kts | 166° |
| 2026-04-27 20:01 | 21.48136 | -103.62466 | 26845 ft | 445 kts | 166° |
| 2026-04-27 20:01 | 21.45170 | -103.61489 | 26203 ft | 448 kts | 166° |
| 2026-04-27 20:02 | 21.42162 | -103.60501 | 25216 ft | 455 kts | 166° |
| 2026-04-27 20:02 | 21.39159 | -103.59512 | 24496 ft | 454 kts | 165° |
| 2026-04-27 20:02 | 21.36163 | -103.58411 | 23853 ft | 454 kts | 158° |
| 2026-04-27 20:02 | 21.33425 | -103.56714 | 23227 ft | 454 kts | 145° |
| 2026-04-27 20:03 | 21.31131 | -103.54452 | 22555 ft | 453 kts | 132° |
| 2026-04-27 20:03 | 21.29332 | -103.51674 | 21908 ft | 450 kts | 121° |
| 2026-04-27 20:03 | 21.27788 | -103.48761 | 21273 ft | 446 kts | 121° |
| 2026-04-27 20:03 | 21.26276 | -103.45924 | 20677 ft | 442 kts | 121° |
| 2026-04-27 20:04 | 21.24752 | -103.43078 | 20096 ft | 438 kts | 121° |
| 2026-04-27 20:04 | 21.23241 | -103.40263 | 19550 ft | 434 kts | 121° |
| 2026-04-27 20:04 | 21.21742 | -103.37471 | 19025 ft | 430 kts | 121° |
| 2026-04-27 20:04 | 21.20260 | -103.34707 | 18531 ft | 426 kts | 121° |
| 2026-04-27 20:05 | 21.18788 | -103.31962 | 18075 ft | 421 kts | 121° |
| 2026-04-27 20:05 | 21.17348 | -103.29272 | 17184 ft | 412 kts | 121° |
| 2026-04-27 20:05 | 21.15941 | -103.26633 | 16269 ft | 403 kts | 121° |
| 2026-04-27 20:05 | 21.14572 | -103.24066 | 15519 ft | 390 kts | 121° |
| 2026-04-27 20:06 | 21.13283 | -103.21645 | 15266 ft | 370 kts | 121° |
| 2026-04-27 20:06 | 21.12008 | -103.19245 | 15030 ft | 367 kts | 121° |
| 2026-04-27 20:06 | 21.10703 | -103.16887 | 14790 ft | 363 kts | 126° |
| 2026-04-27 20:06 | 21.09109 | -103.14852 | 14555 ft | 359 kts | 137° |
| 2026-04-27 20:07 | 21.07314 | -103.12990 | 14318 ft | 358 kts | 137° |
| 2026-04-27 20:07 | 21.05701 | -103.11309 | 14118 ft | 357 kts | 137° |
| 2026-04-27 20:07 | 21.03952 | -103.09477 | 13899 ft | 355 kts | 136° |
| 2026-04-27 20:07 | 21.02194 | -103.07625 | 13672 ft | 353 kts | 136° |
| 2026-04-27 20:08 | 21.00443 | -103.05779 | 13427 ft | 351 kts | 136° |
| 2026-04-27 20:08 | 20.98723 | -103.03967 | 13175 ft | 350 kts | 136° |
| 2026-04-27 20:08 | 20.96989 | -103.02145 | 12923 ft | 349 kts | 136° |
| 2026-04-27 20:08 | 20.95251 | -103.00326 | 12678 ft | 348 kts | 136° |
| 2026-04-27 20:09 | 20.93528 | -102.98526 | 12592 ft | 348 kts | 136° |
| 2026-04-27 20:09 | 20.91792 | -102.96710 | 12608 ft | 348 kts | 136° |
| 2026-04-27 20:09 | 20.90051 | -102.94889 | 12608 ft | 348 kts | 136° |
| 2026-04-27 20:09 | 20.88321 | -102.93078 | 12606 ft | 348 kts | 136° |
| 2026-04-27 20:10 | 20.86601 | -102.91276 | 12609 ft | 348 kts | 136° |
| 2026-04-27 20:10 | 20.84867 | -102.89462 | 12608 ft | 349 kts | 136° |
| 2026-04-27 20:10 | 20.83129 | -102.87647 | 12609 ft | 349 kts | 137° |
| 2026-04-27 20:10 | 20.81405 | -102.85853 | 12608 ft | 349 kts | 136° |
| 2026-04-27 20:11 | 20.79665 | -102.84038 | 12611 ft | 349 kts | 136° |
| 2026-04-27 20:11 | 20.77974 | -102.82270 | 12605 ft | 333 kts | 136° |
| 2026-04-27 20:11 | 20.76351 | -102.80574 | 12609 ft | 318 kts | 136° |
| 2026-04-27 20:11 | 20.74802 | -102.78957 | 12606 ft | 303 kts | 136° |
| 2026-04-27 20:12 | 20.73342 | -102.77434 | 12604 ft | 289 kts | 136° |
| 2026-04-27 20:12 | 20.71932 | -102.75963 | 12611 ft | 279 kts | 136° |
| 2026-04-27 20:12 | 20.70440 | -102.74640 | 12613 ft | 277 kts | 144° |
| 2026-04-27 20:12 | 20.68888 | -102.73407 | 12613 ft | 277 kts | 144° |
| 2026-04-27 20:13 | 20.67365 | -102.72195 | 12608 ft | 276 kts | 143° |
| 2026-04-27 20:13 | 20.65820 | -102.70965 | 12608 ft | 277 kts | 143° |
| 2026-04-27 20:13 | 20.64273 | -102.69732 | 12610 ft | 277 kts | 143° |
| 2026-04-27 20:13 | 20.62727 | -102.68499 | 12608 ft | 276 kts | 143° |
| 2026-04-27 20:14 | 20.61198 | -102.67282 | 12609 ft | 276 kts | 143° |
| 2026-04-27 20:14 | 20.59652 | -102.66051 | 12613 ft | 276 kts | 143° |
| 2026-04-27 20:14 | 20.58109 | -102.64824 | 12606 ft | 276 kts | 143° |
| 2026-04-27 20:14 | 20.56561 | -102.63593 | 12609 ft | 276 kts | 144° |
| 2026-04-27 20:15 | 20.54946 | -102.62561 | 12405 ft | 273 kts | 160° |
| 2026-04-27 20:15 | 20.53101 | -102.62254 | 12307 ft | 264 kts | 183° |
| 2026-04-27 20:15 | 20.51456 | -102.62664 | 12323 ft | 265 kts | 204° |
| 2026-04-27 20:15 | 20.49970 | -102.63790 | 12317 ft | 269 kts | 227° |
| 2026-04-27 20:16 | 20.49008 | -102.65508 | 12317 ft | 273 kts | 250° |
| 2026-04-27 20:16 | 20.48498 | -102.67477 | 12323 ft | 275 kts | 253° |
| 2026-04-27 20:16 | 20.48005 | -102.69456 | 12324 ft | 275 kts | 253° |
| 2026-04-27 20:16 | 20.47517 | -102.71401 | 12322 ft | 275 kts | 253° |
| 2026-04-27 20:17 | 20.47019 | -102.73377 | 12319 ft | 275 kts | 253° |
| 2026-04-27 20:17 | 20.46520 | -102.75343 | 12323 ft | 275 kts | 252° |
| 2026-04-27 20:17 | 20.46019 | -102.77314 | 12324 ft | 274 kts | 252° |
| 2026-04-27 20:17 | 20.45688 | -102.78620 | 12325 ft | 274 kts | 252° |
| 2026-04-27 20:18 | 20.45026 | -102.81229 | 11853 ft | 276 kts | 253° |
| 2026-04-27 20:18 | 20.44519 | -102.83227 | 11185 ft | 281 kts | 253° |
| 2026-04-27 20:18 | 20.44018 | -102.85205 | 10717 ft | 277 kts | 252° |
| 2026-04-27 20:18 | 20.43516 | -102.87179 | 10246 ft | 274 kts | 252° |
| 2026-04-27 20:19 | 20.43018 | -102.89129 | 9830 ft | 270 kts | 253° |
| 2026-04-27 20:19 | 20.42529 | -102.91044 | 9433 ft | 265 kts | 253° |
| 2026-04-27 20:19 | 20.42055 | -102.92912 | 9076 ft | 262 kts | 253° |
| 2026-04-27 20:19 | 20.41586 | -102.94753 | 8966 ft | 251 kts | 253° |
| 2026-04-27 20:20 | 20.41142 | -102.96496 | 8905 ft | 233 kts | 253° |
| 2026-04-27 20:20 | 20.40732 | -102.98115 | 8890 ft | 219 kts | 253° |
| 2026-04-27 20:20 | 20.40339 | -102.99656 | 8796 ft | 212 kts | 253° |
| 2026-04-27 20:20 | 20.40054 | -103.01163 | 8712 ft | 208 kts | 266° |
| 2026-04-27 20:21 | 20.40273 | -103.02656 | 8655 ft | 201 kts | 286° |
| 2026-04-27 20:21 | 20.40794 | -103.04060 | 8603 ft | 210 kts | 291° |
| 2026-04-27 20:21 | 20.41385 | -103.05483 | 8522 ft | 214 kts | 292° |
| 2026-04-27 20:21 | 20.41997 | -103.06931 | 8469 ft | 213 kts | 292° |
| 2026-04-27 20:22 | 20.42612 | -103.08387 | 8316 ft | 214 kts | 292° |
| 2026-04-27 20:22 | 20.43220 | -103.09827 | 8134 ft | 213 kts | 292° |
| 2026-04-27 20:22 | 20.43823 | -103.11256 | 8060 ft | 215 kts | 292° |
| 2026-04-27 20:22 | 20.44433 | -103.12703 | 7883 ft | 214 kts | 292° |
| 2026-04-27 20:23 | 20.45039 | -103.14140 | 7675 ft | 211 kts | 292° |
| 2026-04-27 20:23 | 20.45642 | -103.15569 | 7465 ft | 212 kts | 292° |
| 2026-04-27 20:23 | 20.46247 | -103.17006 | 7249 ft | 213 kts | 292° |
| 2026-04-27 20:23 | 20.46858 | -103.18456 | 7021 ft | 213 kts | 292° |
| 2026-04-27 20:24 | 20.47454 | -103.19870 | 6822 ft | 202 kts | 291° |
| 2026-04-27 20:24 | 20.48005 | -103.21175 | 6596 ft | 185 kts | 292° |
| 2026-04-27 20:24 | 20.48508 | -103.22371 | 6429 ft | 170 kts | 292° |
| 2026-04-27 20:24 | 20.48974 | -103.23479 | 6291 ft | 162 kts | 292° |
| 2026-04-27 20:25 | 20.49430 | -103.24564 | 6148 ft | 159 kts | 292° |
| 2026-04-27 20:25 | 20.49882 | -103.25638 | 5946 ft | 158 kts | 293° |
| 2026-04-27 20:25 | 20.50332 | -103.26701 | 5707 ft | 157 kts | 294° |
| 2026-04-27 20:25 | 20.50775 | -103.27759 | 5442 ft | 156 kts | 294° |
| 2026-04-27 20:26 | 20.51217 | -103.28819 | 5170 ft | 157 kts | 294° |
| 2026-04-27 20:26 | 20.51660 | -103.29871 | 5029 ft | 148 kts | 294° |
| 2026-04-27 20:26 | 20.52014 | -103.30711 | 5029 ft | 101 kts | 294° |
| 2026-04-27 20:26 | 20.52231 | -103.31228 | 5032 ft | 51 kts | 294° |
| 2026-04-27 20:27 | 20.52346 | -103.31465 | 5030 ft | 30 kts | 309° |
| 2026-04-27 20:27 | 20.52479 | -103.31568 | 5029 ft | 14 kts | 329° |
| 2026-04-27 20:27 | 20.52570 | -103.31587 | 5028 ft | 15 kts | 23° |
| 2026-04-27 20:27 | 20.52668 | -103.31536 | 5029 ft | 17 kts | 26° |
| 2026-04-27 20:28 | 20.52758 | -103.31490 | 5029 ft | 10 kts | 45° |
| 2026-04-27 20:28 | 20.52750 | -103.31417 | 5025 ft | 11 kts | 115° |
| 2026-04-27 20:28 | 20.52714 | -103.31332 | 5028 ft | 14 kts | 114° |
| 2026-04-27 20:28 | 20.52686 | -103.31267 | 5028 ft | 15 kts | 114° |
| 2026-04-27 20:29 | 20.52622 | -103.31112 | 5029 ft | 20 kts | 114° |
| 2026-04-27 20:29 | 20.52557 | -103.30956 | 5029 ft | 25 kts | 114° |
| 2026-04-27 20:29 | 20.52484 | -103.30783 | 5028 ft | 26 kts | 115° |
| 2026-04-27 20:29 | 20.52408 | -103.30604 | 5029 ft | 27 kts | 114° |
| 2026-04-27 20:30 | 20.52331 | -103.30417 | 5029 ft | 28 kts | 114° |
| 2026-04-27 20:30 | 20.52276 | -103.30280 | 5026 ft | 6 kts | 101° |
| 2026-04-27 20:30 | 20.52299 | -103.30246 | 5029 ft | 7 kts | 25° |
| 2026-04-27 20:30 | 20.52351 | -103.30225 | 5029 ft | 9 kts | 21° |
| 2026-04-27 20:31 | 20.52398 | -103.30189 | 5029 ft | 9 kts | 74° |
| 2026-04-27 20:31 | 20.52398 | -103.30150 | 5029 ft | 5 kts | 76° |
| 2026-04-27 20:31 | 20.52426 | -103.30134 | 5029 ft | 5 kts | 23° |
| 2026-04-27 20:31 | 20.52445 | -103.30127 | 5029 ft | 1 kts | 19° |
| 2026-04-27 20:32 | 20.52447 | -103.30126 | 5029 ft | 0 kts | 19° |